PAKT/KTN METAR and TAF weather

Enter ICAO airport designator
Station Type Date Time Source
PAKT METAR 2022/12/04 12:53 UTC NOAA

PAKT 041253Z AUTO 33010KT 10SM CLR M02/M04 A3024 RMK AO2 SLP241 T10171044 TSNO


Station Type Date Time Source
PAKT Decoded METAR 2022/12/04 12:53 UTC NOAA

KETCHIKAN INTERNATIONAL AIRPORT , AK, United States (PAKT) 55-21N 131-43W 25M
Dec 04, 2022 - 07:53 AM EST / 2022.12.04 1253 UTC
Wind: from the NNW (330 degrees) at 12 MPH (10 KT):0
Visibility: 10 mile(s):0
Sky conditions: clear
Temperature: 28.9 F (-1.7 C)
Windchill: 19 F (-7 C):1
Dew Point: 24.1 F (-4.4 C)
Relative Humidity: 81%
Pressure (altimeter): 30.24 in. Hg (1024 hPa)
ob: PAKT 041253Z AUTO 33010KT 10SM CLR M02/M04 A3024 RMK AO2 SLP241 T10171044 TSNO
cycle: 13

Station Type Date Time Source
PAKT TAF 2022/12/04 12:36 UTC NOAA

TAF PAKT 041132Z 0412/0512 32008KT P6SM SKC
AMD LTD TO CLD VIS AND WIND TIL 041500

Example: see airport list